South Porcupine, Canada
Current Conditions -  °F | °C
As of 2:00 PM on Friday 24 Oct 2014 (Local Time) from CYTS Reporting Station
Overcast Overcast  
Wind Chill: 50°   Ceiling: 4400
Heat Index: 50°   Visibility: 15mi
Dew Point: 41°   Wind: 6mph
Humidity: 71%   Direction: 210°SSW
Pressure: 29.86"   Gusts: NA
Location:  48.49°N, 81.21°W
Report Text: CYTS 241800Z 21005KT 180V240 15SM SCT024 BKN044 OVC150 10/05 A2986 RMK SC4SC3AC1 SLP125
Loading
Personal Weather Stations






























Interactive Weather Map
Tropical Storm Tracking
New forecast layout! Learn more

10-Day Weather Forecast

Advertisements
Track Severe Weather on mobile